createdAt,value
2019-04-06T00:00:14.999Z,83.80
2019-04-06T00:02:43.457Z,83.80
2019-04-06T00:05:12.152Z,83.20
2019-04-06T00:07:40.559Z,83.30
2019-04-06T00:10:09.617Z,83.40
2019-04-06T00:12:38.013Z,83.80
2019-04-06T00:15:07.661Z,83.80
2019-04-06T00:17:36.060Z,83.40
2019-04-06T00:20:08.666Z,83.30
2019-04-06T00:22:37.100Z,83.20
2019-04-06T00:25:06.656Z,83.20
2019-04-06T00:27:35.057Z,83.20
2019-04-06T00:32:50.577Z,83.80
2019-04-06T00:35:19.016Z,83.30
2019-04-06T00:37:47.472Z,83.30
2019-04-06T00:40:16.351Z,83.70
2019-04-06T00:42:44.862Z,83.80
2019-04-06T00:45:13.440Z,84.00
2019-04-06T00:47:41.889Z,83.70
2019-04-06T00:50:10.423Z,83.40
2019-04-06T00:55:06.932Z,83.30
2019-04-06T00:57:35.324Z,83.40
2019-04-06T01:00:05.848Z,83.70
2019-04-06T01:02:34.253Z,84.00
2019-04-06T01:07:30.778Z,84.70
2019-04-06T01:09:59.214Z,84.20
2019-04-06T01:12:27.616Z,83.80
2019-04-06T01:14:56.024Z,83.90
2019-04-06T01:17:24.426Z,84.20
2019-04-06T01:19:52.878Z,84.10
2019-04-06T01:22:21.280Z,84.20
2019-04-06T01:24:49.696Z,84.40
2019-04-06T01:27:18.099Z,84.40
2019-04-06T01:29:46.515Z,84.40
2019-04-06T01:32:14.917Z,84.20
2019-04-06T01:37:11.413Z,84.60
2019-04-06T01:42:08.117Z,84.80
2019-04-06T01:44:36.574Z,84.80
2019-04-06T01:47:05.013Z,84.80
2019-04-06T01:49:33.417Z,84.80
2019-04-06T01:52:01.830Z,84.80
2019-04-06T01:54:30.232Z,84.50
2019-04-06T01:59:26.744Z,84.20
2019-04-06T02:01:56.793Z,84.30
2019-04-06T02:04:25.275Z,84.40
2019-04-06T02:09:21.798Z,84.50
2019-04-06T02:14:18.354Z,84.70
2019-04-06T02:16:46.813Z,84.70
2019-04-06T02:19:15.251Z,84.70
2019-04-06T02:26:40.027Z,84.90
2019-04-06T02:29:08.527Z,84.90
2019-04-06T02:38:02.496Z,84.70
2019-04-06T02:40:44.816Z,84.60
2019-04-06T02:43:34.222Z,84.60
2019-04-06T02:46:02.711Z,84.70
2019-04-06T02:48:31.112Z,84.90
2019-04-06T02:50:59.559Z,84.90
2019-04-06T02:55:56.249Z,85.20
2019-04-06T02:58:25.280Z,85.10
2019-04-06T03:00:53.698Z,84.80
2019-04-06T03:03:22.290Z,84.50
2019-04-06T03:05:50.833Z,84.40
2019-04-06T03:08:19.358Z,84.40
2019-04-06T03:10:47.957Z,84.50
2019-04-06T03:13:16.795Z,84.70
2019-04-06T03:18:13.509Z,85.10
2019-04-06T03:26:11.401Z,85.50
2019-04-06T03:28:39.830Z,85.30
2019-04-06T03:31:08.401Z,84.90
2019-04-06T03:33:37.109Z,84.90
2019-04-06T03:36:05.674Z,85.10
2019-04-06T03:38:34.160Z,85.20
2019-04-06T03:41:02.750Z,85.10
2019-04-06T03:45:59.390Z,85.10
2019-04-06T03:48:27.799Z,84.70
2019-04-06T03:50:56.397Z,84.60
2019-04-06T03:53:24.894Z,84.80
2019-04-06T03:55:53.382Z,84.90
2019-04-06T03:58:22.095Z,84.90
2019-04-06T04:00:50.578Z,85.20
2019-04-06T04:03:19.207Z,85.10
2019-04-06T04:05:47.589Z,85.20
2019-04-06T04:08:16.001Z,85.30
2019-04-06T04:10:47.076Z,85.20
2019-04-06T04:13:14.553Z,85.50
2019-04-06T04:15:42.944Z,85.50
2019-04-06T04:18:11.533Z,85.30
2019-04-06T04:20:40.026Z,85.20
2019-04-06T04:25:36.796Z,85.30
2019-04-06T04:28:05.469Z,85.30
2019-04-06T04:33:03.511Z,85.40
2019-04-06T04:35:31.910Z,85.40
2019-04-06T04:38:00.337Z,85.30
2019-04-06T04:40:28.807Z,85.30
2019-04-06T04:42:57.218Z,85.40
2019-04-06T04:45:25.616Z,85.20
2019-04-06T04:47:54.031Z,85.10
2019-04-06T04:50:22.463Z,85.10
2019-04-06T04:52:50.929Z,84.90
2019-04-06T04:55:19.446Z,85.30
2019-04-06T04:57:48.170Z,85.60
2019-04-06T05:00:17.345Z,85.80
2019-04-06T05:02:45.753Z,85.90
2019-04-06T05:05:14.239Z,86.00
2019-04-06T05:10:11.143Z,85.90
2019-04-06T05:15:13.785Z,85.70
2019-04-06T05:17:42.188Z,85.60
2019-04-06T05:20:11.041Z,85.70
2019-04-06T05:22:39.437Z,85.60
2019-04-06T05:27:51.242Z,85.50
2019-04-06T05:30:12.329Z,85.50
2019-04-06T05:35:12.198Z,85.60
2019-04-06T05:40:08.848Z,85.40
2019-04-06T05:42:37.256Z,85.40
2019-04-06T05:45:09.214Z,85.50
2019-04-06T05:47:37.618Z,85.30
2019-04-06T05:50:07.480Z,84.90
2019-04-06T05:52:35.947Z,84.80
2019-04-06T05:57:33.520Z,84.60
2019-04-06T06:00:01.955Z,84.90
2019-04-06T06:02:30.378Z,85.10
2019-04-06T06:05:00.881Z,85.50
2019-04-06T06:07:29.016Z,85.20
2019-04-06T06:09:57.544Z,84.80
2019-04-06T06:12:26.386Z,84.60
2019-04-06T06:14:55.272Z,84.60
2019-04-06T06:17:23.912Z,84.50
2019-04-06T06:19:52.368Z,84.50
2019-04-06T06:22:20.855Z,84.80
2019-04-06T06:24:49.322Z,84.90
2019-04-06T06:27:17.760Z,84.70
2019-04-06T06:29:46.172Z,84.80
2019-04-06T06:32:14.686Z,84.50
2019-04-06T06:34:43.177Z,84.60
2019-04-06T06:37:11.754Z,84.40
2019-04-06T06:42:08.345Z,83.90
2019-04-06T06:44:37.116Z,83.90
2019-04-06T06:47:05.598Z,83.90
2019-04-06T06:49:34.076Z,83.40
2019-04-06T06:52:02.490Z,83.50
2019-04-06T06:54:30.954Z,83.50
2019-04-06T06:56:59.656Z,83.30
2019-04-06T06:59:28.069Z,83.10
2019-04-06T07:01:56.482Z,83.70
2019-04-06T07:04:24.899Z,84.00
2019-04-06T07:06:53.311Z,84.20
2019-04-06T07:09:21.713Z,84.20
2019-04-06T07:11:50.153Z,84.20
2019-04-06T07:14:18.629Z,84.20
2019-04-06T07:16:47.093Z,84.40
2019-04-06T07:21:43.577Z,84.70
2019-04-06T07:26:41.553Z,84.50
2019-04-06T07:29:10.272Z,84.50
2019-04-06T07:31:38.697Z,84.30
2019-04-06T07:34:07.154Z,84.40
2019-04-06T07:36:36.065Z,84.30
2019-04-06T07:39:06.401Z,84.30
2019-04-06T07:44:03.163Z,84.20
2019-04-06T07:46:33.064Z,84.30
2019-04-06T07:51:31.461Z,83.20
2019-04-06T07:53:59.872Z,84.00
2019-04-06T07:56:28.288Z,83.50
2019-04-06T07:58:56.704Z,83.50
2019-04-06T08:01:25.108Z,83.10
2019-04-06T08:03:53.521Z,83.00
2019-04-06T08:08:50.030Z,82.60
2019-04-06T08:11:18.533Z,81.20
2019-04-06T08:13:47.158Z,80.80
2019-04-06T08:18:43.812Z,81.00
2019-04-06T08:21:12.231Z,80.50
2019-04-06T08:23:40.859Z,80.30
2019-04-06T08:26:09.465Z,80.50
2019-04-06T08:28:38.177Z,79.80
2019-04-06T08:31:06.820Z,79.10
2019-04-06T08:33:35.380Z,78.40
2019-04-06T08:38:32.096Z,78.90
2019-04-06T08:41:00.528Z,78.40
2019-04-06T08:43:29.116Z,78.80
2019-04-06T08:45:57.530Z,78.20
2019-04-06T08:48:25.952Z,77.60
2019-04-06T08:50:54.572Z,78.10
2019-04-06T08:53:23.050Z,76.30
2019-04-06T08:55:51.456Z,76.30
2019-04-06T09:00:48.089Z,76.00
2019-04-06T09:08:13.266Z,75.50
2019-04-06T09:10:41.788Z,74.80
2019-04-06T09:13:10.227Z,73.80
2019-04-06T09:15:38.648Z,72.10
2019-04-06T09:18:07.096Z,71.30
2019-04-06T09:20:35.523Z,71.10
2019-04-06T09:23:04.135Z,70.90
2019-04-06T09:25:32.612Z,71.00
2019-04-06T09:28:01.079Z,70.30
2019-04-06T09:30:29.551Z,70.90
2019-04-06T09:32:58.325Z,68.70
2019-04-06T09:35:27.096Z,68.80
2019-04-06T09:37:55.528Z,67.80
2019-04-06T09:40:23.937Z,69.40
2019-04-06T09:45:31.195Z,68.40
2019-04-06T09:48:04.455Z,69.40
2019-04-06T09:53:04.414Z,72.10
2019-04-06T09:58:10.274Z,70.50
2019-04-06T10:00:43.217Z,70.50
2019-04-06T10:14:02.087Z,67.70
2019-04-06T10:16:41.379Z,68.00
2019-04-06T10:19:20.506Z,66.20
2019-04-06T10:21:56.376Z,66.60
2019-04-06T10:26:59.973Z,67.50
2019-04-06T10:29:30.012Z,68.90
2019-04-06T10:32:03.567Z,67.30
2019-04-06T10:37:06.679Z,64.90
2019-04-06T10:39:36.824Z,65.30
2019-04-06T10:42:12.707Z,64.90
2019-04-06T10:44:58.968Z,64.80
2019-04-06T10:47:29.021Z,67.00
2019-04-06T10:52:41.264Z,67.50
2019-04-06T10:55:20.353Z,68.20
2019-04-06T10:57:50.398Z,68.70
2019-04-06T11:00:20.459Z,69.60
2019-04-06T11:03:08.334Z,69.80
2019-04-06T11:14:04.909Z,69.80
2019-04-06T11:16:43.635Z,70.30
2019-04-06T11:19:13.695Z,70.00
2019-04-06T11:21:52.632Z,71.80
2019-04-06T11:27:07.515Z,71.00
2019-04-06T11:29:55.079Z,71.60
2019-04-06T11:34:57.473Z,71.10
2019-04-06T11:37:33.185Z,71.00
2019-04-06T11:40:18.139Z,71.10
2019-04-06T11:43:06.609Z,71.70
2019-04-06T11:45:48.604Z,71.30
2019-04-06T11:53:21.558Z,71.40
2019-04-06T11:55:51.609Z,71.70
2019-04-06T11:58:30.684Z,71.40
2019-04-06T12:01:17.239Z,71.10
2019-04-06T12:03:50.223Z,71.00
2019-04-06T12:06:22.798Z,71.50
2019-04-06T12:09:09.287Z,71.00
2019-04-06T12:11:39.934Z,70.60
2019-04-06T12:14:12.923Z,71.30
2019-04-06T12:17:01.470Z,71.60
2019-04-06T12:22:04.286Z,70.30
2019-04-06T12:27:37.984Z,71.20
2019-04-06T12:30:20.961Z,70.00
2019-04-06T12:33:07.569Z,70.30
2019-04-06T12:35:43.345Z,69.90
2019-04-06T12:38:13.391Z,69.50
2019-04-06T12:40:59.720Z,70.20
2019-04-06T12:43:46.375Z,69.10
2019-04-06T12:46:22.599Z,68.40
2019-04-06T12:49:07.864Z,69.20
2019-04-06T12:54:32.896Z,69.60
2019-04-06T12:57:03.018Z,69.40
2019-04-06T12:59:49.533Z,68.60
2019-04-06T13:02:31.672Z,69.40
2019-04-06T13:05:12.459Z,68.80
2019-04-06T13:07:58.565Z,68.00
2019-04-06T13:10:40.857Z,68.10
2019-04-06T13:13:13.441Z,68.40
2019-04-06T13:15:43.549Z,68.80
2019-04-06T13:18:13.888Z,67.40
2019-04-06T13:20:47.123Z,68.00
2019-04-06T13:23:33.893Z,67.10
2019-04-06T13:26:19.233Z,67.80
2019-04-06T13:28:49.276Z,68.20
2019-04-06T13:31:19.342Z,67.80
2019-04-06T13:33:55.442Z,68.00
2019-04-06T13:36:31.753Z,67.20
2019-04-06T13:41:51.401Z,67.60
2019-04-06T13:47:10.269Z,66.80
2019-04-06T13:52:24.974Z,67.00
2019-04-06T13:55:09.720Z,67.70
2019-04-06T14:02:57.129Z,67.40
2019-04-06T14:05:32.867Z,65.90
2019-04-06T14:08:05.368Z,66.00
2019-04-06T14:10:35.407Z,66.60
2019-04-06T14:15:50.536Z,67.10
2019-04-06T14:18:37.086Z,66.90
2019-04-06T14:21:22.264Z,67.50
2019-04-06T14:23:55.229Z,67.70
2019-04-06T14:29:47.401Z,68.00
2019-04-06T14:32:20.388Z,67.50
2019-04-06T14:34:50.432Z,67.30
2019-04-06T14:37:32.642Z,67.40
2019-04-06T14:40:05.529Z,67.70
2019-04-06T14:42:41.317Z,68.40
2019-04-06T14:45:14.000Z,68.60
2019-04-06T14:50:33.333Z,68.60
2019-04-06T14:53:03.657Z,68.20
2019-04-06T15:01:05.378Z,67.80
2019-04-06T15:03:51.918Z,68.50
2019-04-06T15:06:40.479Z,68.70
2019-04-06T15:09:30.003Z,67.30
2019-04-06T15:12:16.715Z,67.00
2019-04-06T15:14:46.946Z,67.70
2019-04-06T15:17:25.625Z,68.00
2019-04-06T15:20:02.011Z,68.00
2019-04-06T15:22:32.237Z,67.50
2019-04-06T15:27:48.261Z,68.40
2019-04-06T15:30:34.628Z,68.30
2019-04-06T15:33:16.807Z,67.60
2019-04-06T15:35:58.783Z,67.60
2019-04-06T15:38:31.784Z,68.50
2019-04-06T15:41:07.584Z,69.10
2019-04-06T15:43:37.693Z,68.50
2019-04-06T15:49:09.045Z,69.20
2019-04-06T15:51:54.624Z,69.40
2019-04-06T15:54:41.076Z,69.60
2019-04-06T15:57:26.456Z,69.20
2019-04-06T15:59:56.504Z,68.90
2019-04-06T16:02:26.902Z,68.70
2019-04-06T16:05:00.193Z,69.70
2019-04-06T16:10:01.709Z,69.00
2019-04-06T16:12:34.552Z,69.20
2019-04-06T16:15:07.666Z,69.40
2019-04-06T16:17:57.199Z,69.10
2019-04-06T16:20:39.610Z,69.40
2019-04-06T16:25:48.178Z,69.90
2019-04-06T16:30:51.878Z,70.10
2019-04-06T16:33:22.085Z,70.10
2019-04-06T16:38:36.609Z,70.20
2019-04-06T16:41:18.698Z,70.00
2019-04-06T16:46:39.560Z,71.00
2019-04-06T16:49:15.619Z,71.00
2019-04-06T16:51:45.655Z,71.00
2019-04-06T16:57:11.271Z,71.70
2019-04-06T16:59:53.312Z,72.30
2019-04-06T17:02:29.841Z,72.40
2019-04-06T17:05:05.837Z,72.00
2019-04-06T17:07:52.561Z,72.00
2019-04-06T17:10:25.585Z,71.90
2019-04-06T17:12:58.339Z,72.00
2019-04-06T17:15:37.121Z,72.10
2019-04-06T17:18:23.059Z,72.40
2019-04-06T17:20:56.032Z,72.50
2019-04-06T17:23:29.601Z,72.70
2019-04-06T17:26:08.559Z,72.90
2019-04-06T17:28:54.928Z,73.10
2019-04-06T17:31:25.379Z,73.30
2019-04-06T17:41:34.095Z,74.10
2019-04-06T17:44:04.688Z,74.20
2019-04-06T17:46:34.843Z,74.30
2019-04-06T17:51:55.436Z,74.70
2019-04-06T17:57:19.598Z,75.40
2019-04-06T17:59:49.673Z,75.70
2019-04-06T18:07:59.346Z,76.20
2019-04-06T18:10:29.438Z,76.30
2019-04-06T18:13:01.961Z,76.50
2019-04-06T18:18:00.107Z,77.10
2019-04-06T18:20:28.790Z,77.00
2019-04-06T18:22:57.402Z,77.20
2019-04-06T18:25:25.805Z,77.30
2019-04-06T18:27:54.226Z,77.40
2019-04-06T18:30:22.782Z,77.50
2019-04-06T18:33:01.290Z,77.60
2019-04-06T18:35:23.336Z,77.40
2019-04-06T18:42:52.130Z,77.40
2019-04-06T18:45:20.880Z,77.50
2019-04-06T18:47:49.520Z,77.60
2019-04-06T18:52:46.466Z,78.10
2019-04-06T18:55:15.020Z,78.20
2019-04-06T18:57:43.542Z,78.40
2019-04-06T19:00:13.362Z,78.50
2019-04-06T19:02:42.471Z,78.60
2019-04-06T19:05:11.612Z,78.70
2019-04-06T19:07:40.057Z,78.80
2019-04-06T19:10:09.496Z,78.90
2019-04-06T19:17:35.553Z,79.50
2019-04-06T19:22:33.407Z,79.50
2019-04-06T19:25:01.843Z,79.60
2019-04-06T19:27:30.385Z,79.70
2019-04-06T19:37:23.153Z,79.90
2019-04-06T19:42:20.437Z,80.00
2019-04-06T19:44:49.029Z,80.00
2019-04-06T19:47:17.433Z,80.10
2019-04-06T19:49:45.849Z,80.00
2019-04-06T19:52:14.246Z,80.20
2019-04-06T19:54:42.667Z,80.20
2019-04-06T19:59:39.520Z,80.90
2019-04-06T20:04:55.333Z,81.00
2019-04-06T20:07:23.990Z,81.00
2019-04-06T20:09:52.844Z,81.10
2019-04-06T20:12:21.272Z,81.20
2019-04-06T20:14:49.679Z,81.30
2019-04-06T20:17:18.605Z,81.30
2019-04-06T20:19:47.363Z,81.30
2019-04-06T20:22:15.864Z,81.70
2019-04-06T20:24:44.273Z,81.80
2019-04-06T20:27:12.694Z,81.90
2019-04-06T20:29:41.182Z,81.90
2019-04-06T20:32:09.644Z,81.70
2019-04-06T20:34:38.054Z,81.50
2019-04-06T20:37:06.451Z,81.50
2019-04-06T20:39:34.860Z,81.50
2019-04-06T20:44:31.526Z,81.60
2019-04-06T20:47:00.600Z,81.90
2019-04-06T20:49:29.122Z,81.80
2019-04-06T20:51:58.799Z,81.50
2019-04-06T20:54:27.642Z,81.60
2019-04-06T20:56:57.985Z,81.90
2019-04-06T20:59:26.182Z,82.00
2019-04-06T21:01:54.582Z,81.80
2019-04-06T21:04:22.978Z,81.50
2019-04-06T21:06:51.533Z,81.50
2019-04-06T21:09:20.046Z,81.50
2019-04-06T21:11:49.035Z,81.40
2019-04-06T21:14:17.968Z,81.30
2019-04-06T21:16:46.886Z,81.30
2019-04-06T21:19:15.870Z,81.20
2019-04-06T21:21:44.455Z,81.30
2019-04-06T21:24:12.844Z,81.30
2019-04-06T21:26:41.699Z,81.40
2019-04-06T21:29:10.259Z,81.30
2019-04-06T21:31:38.673Z,81.40
2019-04-06T21:34:13.213Z,81.50
2019-04-06T21:36:37.205Z,81.50
2019-04-06T21:39:07.517Z,81.70
2019-04-06T21:41:35.928Z,81.50
2019-04-06T21:44:04.973Z,81.60
2019-04-06T21:46:33.675Z,81.60
2019-04-06T21:49:02.329Z,81.70
2019-04-06T21:51:31.002Z,81.90
2019-04-06T21:56:28.485Z,82.10
2019-04-06T21:58:57.322Z,82.10
2019-04-06T22:01:26.435Z,82.10
2019-04-06T22:03:55.068Z,82.10
2019-04-06T22:06:25.009Z,82.60
2019-04-06T22:08:53.739Z,82.80
2019-04-06T22:11:22.237Z,82.90
2019-04-06T22:13:51.214Z,82.90
2019-04-06T22:16:19.717Z,82.90
2019-04-06T22:18:48.785Z,82.90
2019-04-06T22:21:17.892Z,82.70
2019-04-06T22:23:47.410Z,82.70
2019-04-06T22:28:44.118Z,82.70
2019-04-06T22:31:13.215Z,82.70
2019-04-06T22:33:41.774Z,82.60
2019-04-06T22:36:10.181Z,82.50
2019-04-06T22:38:38.718Z,82.60
2019-04-06T22:41:07.172Z,82.40
2019-04-06T22:43:35.565Z,82.60
2019-04-06T22:46:04.331Z,82.80
2019-04-06T22:48:33.566Z,83.10
2019-04-06T22:51:02.134Z,83.30
2019-04-06T22:55:59.136Z,83.30
2019-04-06T22:58:27.920Z,83.30
2019-04-06T23:00:58.100Z,83.30
2019-04-06T23:03:28.552Z,83.20
2019-04-06T23:06:17.995Z,83.10
2019-04-06T23:08:46.664Z,82.60
2019-04-06T23:11:15.075Z,82.30
2019-04-06T23:13:43.799Z,82.00
2019-04-06T23:18:41.293Z,81.80
2019-04-06T23:21:09.805Z,81.80
2019-04-06T23:26:06.276Z,81.70
2019-04-06T23:28:34.689Z,81.40
2019-04-06T23:31:03.155Z,81.00
2019-04-06T23:33:31.585Z,81.00
2019-04-06T23:35:59.985Z,81.00
2019-04-06T23:38:28.394Z,80.50
2019-04-06T23:40:56.788Z,80.30
2019-04-06T23:43:25.575Z,80.30
2019-04-06T23:45:53.972Z,80.50
2019-04-06T23:48:22.376Z,80.80
2019-04-06T23:50:50.772Z,80.80
2019-04-06T23:53:19.205Z,81.00
2019-04-06T23:58:16.413Z,81.00
